createdAt,value
2022-08-10T00:01:45.333Z,21.90
2022-08-10T00:04:21.541Z,21.70
2022-08-10T00:06:49.589Z,21.90
2022-08-10T00:09:16.330Z,21.70
2022-08-10T00:11:43.058Z,21.60
2022-08-10T00:14:09.787Z,21.90
2022-08-10T00:16:36.545Z,21.70
2022-08-10T00:19:03.279Z,21.90
2022-08-10T00:21:30.001Z,21.60
2022-08-10T00:23:56.718Z,21.60
2022-08-10T00:26:23.448Z,21.60
2022-08-10T00:28:50.217Z,21.50
2022-08-10T00:31:17.008Z,21.60
2022-08-10T00:33:43.767Z,21.90
2022-08-10T00:36:10.556Z,21.40
2022-08-10T00:38:37.706Z,21.50
2022-08-10T00:41:04.470Z,21.50
2022-08-10T00:43:31.255Z,21.80
2022-08-10T00:45:58.849Z,21.60
2022-08-10T00:48:28.092Z,21.60
2022-08-10T00:50:55.028Z,21.40
2022-08-10T00:53:21.783Z,21.50
2022-08-10T00:57:12.691Z,21.40
2022-08-10T00:58:36.352Z,21.40
2022-08-10T01:01:03.139Z,21.60
2022-08-10T01:04:58.847Z,21.40
2022-08-10T01:06:26.210Z,21.40
2022-08-10T01:08:59.043Z,21.60
2022-08-10T01:12:39.650Z,21.50
2022-08-10T01:14:25.068Z,21.40
2022-08-10T01:17:00.263Z,21.50
2022-08-10T01:19:45.503Z,21.30
2022-08-10T01:22:23.906Z,21.40
2022-08-10T01:24:50.633Z,21.30
2022-08-10T01:27:27.515Z,21.30
2022-08-10T01:30:03.741Z,21.30
2022-08-10T01:32:49.336Z,21.40
2022-08-10T01:35:16.064Z,21.70
2022-08-10T01:37:51.892Z,21.20
2022-08-10T01:40:22.984Z,21.70
2022-08-10T01:42:49.708Z,21.20
2022-08-10T01:45:17.023Z,21.60
2022-08-10T01:48:02.303Z,21.40
2022-08-10T01:50:30.361Z,21.30
2022-08-10T01:52:58.900Z,21.30
2022-08-10T01:55:25.754Z,22.00
2022-08-10T01:57:52.478Z,22.00
2022-08-10T02:00:19.334Z,21.90
2022-08-10T02:02:46.087Z,22.20
2022-08-10T02:05:12.864Z,22.40
2022-08-10T02:07:42.129Z,22.30
2022-08-10T02:10:10.073Z,22.60
2022-08-10T02:12:36.917Z,22.50
2022-08-10T02:15:07.890Z,22.50
2022-08-10T02:17:57.638Z,22.50
2022-08-10T02:20:27.425Z,22.40
2022-08-10T02:23:00.802Z,22.20
2022-08-10T02:25:40.519Z,22.10
2022-08-10T02:28:12.381Z,22.10
2022-08-10T02:30:54.625Z,21.70
2022-08-10T02:33:25.227Z,21.60
2022-08-10T02:35:55.876Z,21.60
2022-08-10T02:38:59.558Z,21.40
2022-08-10T02:45:14.469Z,21.70
2022-08-10T02:45:21.692Z,22.00
2022-08-10T02:47:10.731Z,22.20
2022-08-10T02:49:42.174Z,22.00
2022-08-10T02:52:14.371Z,22.20
2022-08-10T02:54:44.798Z,22.40
2022-08-10T02:57:27.225Z,22.40
2022-08-10T02:59:54.395Z,22.60
2022-08-10T03:02:29.873Z,22.70
2022-08-10T03:05:12.613Z,22.60
2022-08-10T03:07:45.204Z,22.20
2022-08-10T03:10:17.045Z,22.20
2022-08-10T03:12:43.816Z,21.90
2022-08-10T03:15:15.648Z,21.80
2022-08-10T03:17:43.378Z,21.70
2022-08-10T03:20:38.244Z,21.60
2022-08-10T03:23:18.904Z,21.60
2022-08-10T03:25:53.211Z,21.50
2022-08-10T03:28:28.054Z,21.80
2022-08-10T03:30:54.905Z,21.40
2022-08-10T03:33:22.320Z,21.70
2022-08-10T03:36:41.599Z,21.60
2022-08-10T03:38:36.214Z,22.00
2022-08-10T03:41:03.985Z,22.50
2022-08-10T03:43:30.774Z,22.20
2022-08-10T03:45:59.037Z,22.10
2022-08-10T03:48:32.341Z,22.70
2022-08-10T03:51:13.011Z,22.30
2022-08-10T03:54:06.087Z,22.90
2022-08-10T03:56:28.271Z,23.00
2022-08-10T03:58:57.439Z,23.00
2022-08-10T04:02:42.156Z,22.30
2022-08-10T04:04:12.943Z,22.40
2022-08-10T04:06:42.128Z,22.20
2022-08-10T04:09:09.336Z,22.40
2022-08-10T04:11:37.066Z,22.00
2022-08-10T04:14:07.846Z,22.30
2022-08-10T04:16:54.615Z,22.60
2022-08-10T04:19:21.376Z,22.40
2022-08-10T04:21:50.385Z,22.50
2022-08-10T04:24:27.124Z,22.50
2022-08-10T04:27:00.524Z,22.90
2022-08-10T04:29:27.249Z,22.50
2022-08-10T04:31:54.076Z,22.30
2022-08-10T04:34:20.922Z,22.00
2022-08-10T04:36:48.177Z,22.20
2022-08-10T04:39:14.997Z,22.10
2022-08-10T04:41:46.146Z,22.10
2022-08-10T04:44:14.479Z,21.70
2022-08-10T04:46:42.937Z,21.60
2022-08-10T04:54:38.225Z,21.80
2022-08-10T04:57:05.222Z,22.00
2022-08-10T04:59:31.952Z,22.10
2022-08-10T05:02:30.574Z,22.10
2022-08-10T05:04:45.387Z,22.10
2022-08-10T05:10:01.132Z,24.60
2022-08-10T05:12:30.737Z,22.70
2022-08-10T05:14:57.448Z,22.70
2022-08-10T06:18:19.386Z,22.80
2022-08-10T20:01:02.857Z,22.60
2022-08-10T20:03:38.851Z,22.80
2022-08-10T20:33:57.423Z,22.80
2022-08-10T20:36:31.065Z,22.60
2022-08-10T20:39:12.009Z,22.30
2022-08-10T20:41:48.098Z,22.30
2022-08-10T20:44:27.024Z,22.00
2022-08-10T20:47:01.844Z,22.30
2022-08-10T20:49:38.455Z,21.80
2022-08-10T20:52:05.329Z,22.10
2022-08-10T20:54:36.906Z,22.00
2022-08-10T20:57:03.727Z,21.80
2022-08-10T21:00:04.112Z,22.10
2022-08-10T21:02:50.867Z,21.60
2022-08-10T21:05:36.244Z,21.80
2022-08-10T21:08:26.114Z,22.00
